sensor_id;sensor_type;location;lat;lon;timestamp;pressure;altitude;pressure_sealevel;temperature;humidity
51715;BME280;39115;59.332;18.034;2023-03-25T00:00:50;98190.50;;;3.60;74.25
51715;BME280;39115;59.332;18.034;2023-03-25T00:03:16;98206.75;;;3.55;74.34
51715;BME280;39115;59.332;18.034;2023-03-25T00:05:39;98216.75;;;3.52;74.23
51715;BME280;39115;59.332;18.034;2023-03-25T00:07:59;98230.50;;;3.45;74.04
51715;BME280;39115;59.332;18.034;2023-03-25T00:10:20;98245.22;;;3.38;74.28
51715;BME280;39115;59.332;18.034;2023-03-25T00:12:40;98249.03;;;3.26;74.16
51715;BME280;39115;59.332;18.034;2023-03-25T00:15:01;98250.75;;;3.17;74.10
51715;BME280;39115;59.332;18.034;2023-03-25T00:17:23;98277.78;;;3.09;74.24
51715;BME280;39115;59.332;18.034;2023-03-25T00:19:48;98289.03;;;3.02;74.23
51715;BME280;39115;59.332;18.034;2023-03-25T00:22:09;98293.06;;;2.96;74.17
51715;BME280;39115;59.332;18.034;2023-03-25T00:24:30;98301.38;;;2.91;74.16
51715;BME280;39115;59.332;18.034;2023-03-25T00:26:50;98314.44;;;2.83;74.08
51715;BME280;39115;59.332;18.034;2023-03-25T00:29:12;98318.59;;;2.76;73.93
51715;BME280;39115;59.332;18.034;2023-03-25T00:31:32;98320.84;;;2.71;74.34
51715;BME280;39115;59.332;18.034;2023-03-25T00:33:53;98332.59;;;2.66;74.07
51715;BME280;39115;59.332;18.034;2023-03-25T00:36:14;98340.91;;;2.62;74.36
51715;BME280;39115;59.332;18.034;2023-03-25T00:38:37;98347.41;;;2.58;74.04
51715;BME280;39115;59.332;18.034;2023-03-25T00:41:27;98363.47;;;2.55;74.15
51715;BME280;39115;59.332;18.034;2023-03-25T00:43:49;98364.03;;;2.48;74.33
51715;BME280;39115;59.332;18.034;2023-03-25T00:46:10;98377.44;;;2.45;74.28
51715;BME280;39115;59.332;18.034;2023-03-25T00:48:31;98380.19;;;2.44;74.16
51715;BME280;39115;59.332;18.034;2023-03-25T00:50:51;98379.50;;;2.42;74.21
51715;BME280;39115;59.332;18.034;2023-03-25T00:53:12;98404.56;;;2.36;74.43
51715;BME280;39115;59.332;18.034;2023-03-25T00:55:32;98404.97;;;2.31;74.27
51715;BME280;39115;59.332;18.034;2023-03-25T00:57:53;98419.22;;;2.29;74.23
51715;BME280;39115;59.332;18.034;2023-03-25T01:00:16;98421.84;;;2.29;74.47
51715;BME280;39115;59.332;18.034;2023-03-25T01:02:37;98419.47;;;2.26;74.26
51715;BME280;39115;59.332;18.034;2023-03-25T01:04:58;98434.66;;;2.22;74.40
51715;BME280;39115;59.332;18.034;2023-03-25T01:07:19;98438.53;;;2.18;74.57
51715;BME280;39115;59.332;18.034;2023-03-25T01:09:40;98439.63;;;2.15;74.51
51715;BME280;39115;59.332;18.034;2023-03-25T01:12:00;98447.66;;;2.14;74.44
51715;BME280;39115;59.332;18.034;2023-03-25T01:14:22;98462.03;;;2.10;74.33
51715;BME280;39115;59.332;18.034;2023-03-25T01:16:46;98478.72;;;2.09;74.42
51715;BME280;39115;59.332;18.034;2023-03-25T01:19:08;98474.59;;;2.06;74.77
51715;BME280;39115;59.332;18.034;2023-03-25T01:21:29;98473.75;;;2.05;74.86
51715;BME280;39115;59.332;18.034;2023-03-25T01:23:53;98480.66;;;2.07;74.57
51715;BME280;39115;59.332;18.034;2023-03-25T01:26:13;98491.16;;;2.07;74.47
51715;BME280;39115;59.332;18.034;2023-03-25T01:28:34;98493.78;;;2.07;74.45
51715;BME280;39115;59.332;18.034;2023-03-25T01:31:06;98500.84;;;2.06;74.39
51715;BME280;39115;59.332;18.034;2023-03-25T01:33:27;98503.88;;;2.01;74.38
51715;BME280;39115;59.332;18.034;2023-03-25T01:35:47;98508.56;;;1.98;74.39
51715;BME280;39115;59.332;18.034;2023-03-25T01:38:08;98523.59;;;1.96;74.51
51715;BME280;39115;59.332;18.034;2023-03-25T01:40:29;98523.03;;;1.92;74.46
51715;BME280;39115;59.332;18.034;2023-03-25T01:42:50;98536.16;;;1.92;74.48
51715;BME280;39115;59.332;18.034;2023-03-25T01:45:15;98533.78;;;1.89;74.53
51715;BME280;39115;59.332;18.034;2023-03-25T01:47:38;98528.94;;;1.84;74.46
51715;BME280;39115;59.332;18.034;2023-03-25T01:49:59;98536.94;;;1.83;74.78
51715;BME280;39115;59.332;18.034;2023-03-25T01:52:23;98548.53;;;1.80;74.54
51715;BME280;39115;59.332;18.034;2023-03-25T01:54:46;98551.97;;;1.81;74.33
51715;BME280;39115;59.332;18.034;2023-03-25T01:57:11;98559.03;;;1.80;74.54
51715;BME280;39115;59.332;18.034;2023-03-25T01:59:32;98563.31;;;1.81;74.55
51715;BME280;39115;59.332;18.034;2023-03-25T02:01:55;98571.06;;;1.83;74.87
51715;BME280;39115;59.332;18.034;2023-03-25T02:04:26;98574.38;;;1.85;74.65
51715;BME280;39115;59.332;18.034;2023-03-25T02:06:54;98578.78;;;1.84;74.49
51715;BME280;39115;59.332;18.034;2023-03-25T02:09:16;98584.31;;;1.81;74.83
51715;BME280;39115;59.332;18.034;2023-03-25T02:11:39;98592.19;;;1.81;74.67
51715;BME280;39115;59.332;18.034;2023-03-25T02:14:08;98595.91;;;1.79;74.56
51715;BME280;39115;59.332;18.034;2023-03-25T02:27:46;98614.91;;;1.50;74.16
51715;BME280;39115;59.332;18.034;2023-03-25T02:33:38;98644.63;;;1.50;73.98
51715;BME280;39115;59.332;18.034;2023-03-25T02:38:50;98643.47;;;1.43;73.78
51715;BME280;39115;59.332;18.034;2023-03-25T02:41:38;98655.59;;;1.44;73.76
51715;BME280;39115;59.332;18.034;2023-03-25T02:44:09;98671.84;;;1.38;73.84
51715;BME280;39115;59.332;18.034;2023-03-25T02:46:34;98666.16;;;1.33;73.72
51715;BME280;39115;59.332;18.034;2023-03-25T02:49:01;98669.00;;;1.30;73.81
51715;BME280;39115;59.332;18.034;2023-03-25T02:51:33;98666.75;;;1.25;73.47
51715;BME280;39115;59.332;18.034;2023-03-25T02:53:59;98683.56;;;1.22;74.01
51715;BME280;39115;59.332;18.034;2023-03-25T02:56:24;98683.94;;;1.18;73.83
51715;BME280;39115;59.332;18.034;2023-03-25T02:58:46;98682.41;;;1.15;74.22
51715;BME280;39115;59.332;18.034;2023-03-25T03:01:07;98687.22;;;1.10;73.85
51715;BME280;39115;59.332;18.034;2023-03-25T03:03:29;98686.63;;;1.06;74.09
51715;BME280;39115;59.332;18.034;2023-03-25T03:05:50;98681.63;;;1.03;73.83
51715;BME280;39115;59.332;18.034;2023-03-25T03:11:27;98687.00;;;1.02;73.34
51715;BME280;39115;59.332;18.034;2023-03-25T03:19:39;98707.59;;;0.95;73.51
51715;BME280;39115;59.332;18.034;2023-03-25T03:22:18;98710.13;;;0.97;73.32
51715;BME280;39115;59.332;18.034;2023-03-25T03:24:45;98714.53;;;0.96;73.33
51715;BME280;39115;59.332;18.034;2023-03-25T03:27:10;98717.00;;;0.98;73.15
51715;BME280;39115;59.332;18.034;2023-03-25T03:29:38;98721.28;;;0.99;73.19
51715;BME280;39115;59.332;18.034;2023-03-25T03:32:16;98715.09;;;1.00;73.23
51715;BME280;39115;59.332;18.034;2023-03-25T03:34:42;98712.34;;;1.01;73.29
51715;BME280;39115;59.332;18.034;2023-03-25T03:37:06;98716.28;;;1.07;73.02
51715;BME280;39115;59.332;18.034;2023-03-25T03:39:31;98707.22;;;1.11;73.66
51715;BME280;39115;59.332;18.034;2023-03-25T03:41:59;98704.47;;;1.13;73.16
51715;BME280;39115;59.332;18.034;2023-03-25T03:44:25;98717.72;;;1.11;72.87
51715;BME280;39115;59.332;18.034;2023-03-25T03:46:56;98725.81;;;1.08;73.32
51715;BME280;39115;59.332;18.034;2023-03-25T03:49:21;98735.47;;;1.07;73.16
51715;BME280;39115;59.332;18.034;2023-03-25T03:51:56;98736.66;;;1.03;72.82
51715;BME280;39115;59.332;18.034;2023-03-25T03:54:23;98741.44;;;0.98;72.73
51715;BME280;39115;59.332;18.034;2023-03-25T03:56:49;98752.16;;;0.95;73.02
51715;BME280;39115;59.332;18.034;2023-03-25T03:59:34;98750.59;;;0.92;73.19
51715;BME280;39115;59.332;18.034;2023-03-25T04:01:58;98761.34;;;0.89;73.20
51715;BME280;39115;59.332;18.034;2023-03-25T04:04:22;98769.22;;;0.89;73.04
51715;BME280;39115;59.332;18.034;2023-03-25T04:06:51;98781.22;;;0.92;73.04
51715;BME280;39115;59.332;18.034;2023-03-25T04:11:52;98783.50;;;0.97;73.06
51715;BME280;39115;59.332;18.034;2023-03-25T04:14:14;98783.22;;;1.00;73.18
51715;BME280;39115;59.332;18.034;2023-03-25T04:16:35;98785.72;;;1.01;73.02
51715;BME280;39115;59.332;18.034;2023-03-25T04:18:56;98781.34;;;1.02;72.80
51715;BME280;39115;59.332;18.034;2023-03-25T04:21:17;98779.06;;;0.97;73.02
51715;BME280;39115;59.332;18.034;2023-03-25T04:23:38;98782.41;;;0.99;73.07
51715;BME280;39115;59.332;18.034;2023-03-25T04:26:00;98775.50;;;0.98;72.73
51715;BME280;39115;59.332;18.034;2023-03-25T04:28:22;98780.75;;;0.98;73.02
51715;BME280;39115;59.332;18.034;2023-03-25T04:30:45;98785.84;;;1.00;72.50
51715;BME280;39115;59.332;18.034;2023-03-25T04:33:05;98791.09;;;1.00;72.98
51715;BME280;39115;59.332;18.034;2023-03-25T04:35:26;98791.69;;;1.03;73.06
51715;BME280;39115;59.332;18.034;2023-03-25T04:37:47;98787.97;;;1.06;72.79
51715;BME280;39115;59.332;18.034;2023-03-25T04:40:14;98785.50;;;1.04;72.91
51715;BME280;39115;59.332;18.034;2023-03-25T04:42:38;98783.00;;;1.03;72.71
51715;BME280;39115;59.332;18.034;2023-03-25T04:45:04;98789.06;;;1.03;72.40
51715;BME280;39115;59.332;18.034;2023-03-25T04:47:26;98798.59;;;1.04;72.51
51715;BME280;39115;59.332;18.034;2023-03-25T04:49:46;98797.28;;;0.99;72.36
51715;BME280;39115;59.332;18.034;2023-03-25T04:52:07;98808.13;;;0.94;72.67
51715;BME280;39115;59.332;18.034;2023-03-25T04:54:28;98811.94;;;0.90;72.72
51715;BME280;39115;59.332;18.034;2023-03-25T04:56:50;98832.19;;;0.88;72.77
51715;BME280;39115;59.332;18.034;2023-03-25T04:59:11;98831.59;;;0.84;72.67
51715;BME280;39115;59.332;18.034;2023-03-25T05:01:31;98851.47;;;0.87;72.64
51715;BME280;39115;59.332;18.034;2023-03-25T05:04:02;98848.84;;;0.87;72.66
51715;BME280;39115;59.332;18.034;2023-03-25T05:06:26;98847.91;;;0.88;72.64
51715;BME280;39115;59.332;18.034;2023-03-25T05:08:47;98847.91;;;0.88;72.60
51715;BME280;39115;59.332;18.034;2023-03-25T05:11:07;98855.75;;;0.88;72.38
51715;BME280;39115;59.332;18.034;2023-03-25T05:13:28;98860.19;;;0.87;72.65
51715;BME280;39115;59.332;18.034;2023-03-25T05:15:48;98856.63;;;0.88;72.49
51715;BME280;39115;59.332;18.034;2023-03-25T05:18:12;98854.81;;;0.89;72.62
51715;BME280;39115;59.332;18.034;2023-03-25T05:20:33;98853.16;;;0.88;72.82
51715;BME280;39115;59.332;18.034;2023-03-25T05:22:54;98855.66;;;0.89;72.78
51715;BME280;39115;59.332;18.034;2023-03-25T05:25:16;98861.00;;;0.88;72.49
51715;BME280;39115;59.332;18.034;2023-03-25T05:27:37;98850.53;;;0.88;72.81
51715;BME280;39115;59.332;18.034;2023-03-25T05:29:58;98844.13;;;0.92;72.73
51715;BME280;39115;59.332;18.034;2023-03-25T05:32:19;98845.41;;;0.98;72.68
51715;BME280;39115;59.332;18.034;2023-03-25T05:34:40;98839.69;;;1.04;72.89
51715;BME280;39115;59.332;18.034;2023-03-25T05:37:01;98831.34;;;1.10;72.60
51715;BME280;39115;59.332;18.034;2023-03-25T05:39:22;98839.66;;;1.15;72.59
51715;BME280;39115;59.332;18.034;2023-03-25T05:41:43;98852.28;;;1.21;72.50
51715;BME280;39115;59.332;18.034;2023-03-25T05:44:06;98856.34;;;1.25;72.50
51715;BME280;39115;59.332;18.034;2023-03-25T05:46:27;98867.19;;;1.32;72.68
51715;BME280;39115;59.332;18.034;2023-03-25T05:48:50;98878.97;;;1.38;72.51
51715;BME280;39115;59.332;18.034;2023-03-25T05:51:14;98875.03;;;1.44;72.60
51715;BME280;39115;59.332;18.034;2023-03-25T05:53:35;98886.97;;;1.48;72.35
51715;BME280;39115;59.332;18.034;2023-03-25T05:55:56;98885.97;;;1.49;72.67
51715;BME280;39115;59.332;18.034;2023-03-25T05:58:17;98886.47;;;1.54;72.50
51715;BME280;39115;59.332;18.034;2023-03-25T06:00:38;98876.44;;;1.59;72.37
51715;BME280;39115;59.332;18.034;2023-03-25T06:02:59;98871.91;;;1.61;72.25
51715;BME280;39115;59.332;18.034;2023-03-25T06:05:20;98880.34;;;1.65;72.29
51715;BME280;39115;59.332;18.034;2023-03-25T06:07:45;98890.84;;;1.65;72.25
51715;BME280;39115;59.332;18.034;2023-03-25T06:10:07;98891.66;;;1.65;72.19
51715;BME280;39115;59.332;18.034;2023-03-25T06:12:27;98892.50;;;1.66;72.32
51715;BME280;39115;59.332;18.034;2023-03-25T06:14:52;98897.75;;;1.66;72.03
51715;BME280;39115;59.332;18.034;2023-03-25T06:17:15;98904.69;;;1.67;72.23
51715;BME280;39115;59.332;18.034;2023-03-25T06:19:38;98903.69;;;1.68;71.96
51715;BME280;39115;59.332;18.034;2023-03-25T06:21:58;98908.94;;;1.68;71.99
51715;BME280;39115;59.332;18.034;2023-03-25T06:24:19;98912.28;;;1.70;72.00
51715;BME280;39115;59.332;18.034;2023-03-25T06:26:40;98906.81;;;1.73;72.15
51715;BME280;39115;59.332;18.034;2023-03-25T06:29:00;98906.44;;;1.78;72.10
51715;BME280;39115;59.332;18.034;2023-03-25T06:31:24;98914.75;;;1.83;71.93
51715;BME280;39115;59.332;18.034;2023-03-25T06:33:53;98911.91;;;1.86;72.01
51715;BME280;39115;59.332;18.034;2023-03-25T06:36:16;98916.88;;;1.89;71.83
51715;BME280;39115;59.332;18.034;2023-03-25T06:38:40;98922.97;;;1.89;71.78
51715;BME280;39115;59.332;18.034;2023-03-25T06:41:00;98934.53;;;1.87;71.88
51715;BME280;39115;59.332;18.034;2023-03-25T06:43:21;98926.56;;;1.88;71.84
51715;BME280;39115;59.332;18.034;2023-03-25T06:45:41;98927.88;;;1.94;71.77
51715;BME280;39115;59.332;18.034;2023-03-25T06:48:02;98935.75;;;1.94;71.77
51715;BME280;39115;59.332;18.034;2023-03-25T06:50:25;98937.28;;;1.97;71.55
51715;BME280;39115;59.332;18.034;2023-03-25T06:52:46;98939.78;;;1.98;71.70
51715;BME280;39115;59.332;18.034;2023-03-25T06:55:06;98932.72;;;1.99;71.67
51715;BME280;39115;59.332;18.034;2023-03-25T06:57:27;98923.19;;;1.98;71.43
51715;BME280;39115;59.332;18.034;2023-03-25T06:59:47;98932.72;;;1.99;71.51
51715;BME280;39115;59.332;18.034;2023-03-25T07:02:11;98936.19;;;1.99;71.40
51715;BME280;39115;59.332;18.034;2023-03-25T07:04:32;98942.25;;;2.00;71.55
51715;BME280;39115;59.332;18.034;2023-03-25T07:06:53;98941.16;;;2.02;71.70
51715;BME280;39115;59.332;18.034;2023-03-25T07:09:13;98941.88;;;2.04;71.62
51715;BME280;39115;59.332;18.034;2023-03-25T07:11:34;98948.81;;;2.05;71.39
51715;BME280;39115;59.332;18.034;2023-03-25T07:13:55;98950.63;;;2.05;71.39
51715;BME280;39115;59.332;18.034;2023-03-25T07:16:15;98960.97;;;2.07;71.30
51715;BME280;39115;59.332;18.034;2023-03-25T07:18:36;98955.00;;;2.04;71.31
51715;BME280;39115;59.332;18.034;2023-03-25T07:20:57;98953.25;;;2.05;71.20
51715;BME280;39115;59.332;18.034;2023-03-25T07:23:17;98957.41;;;2.08;71.50
51715;BME280;39115;59.332;18.034;2023-03-25T07:25:38;98951.78;;;2.12;71.18
51715;BME280;39115;59.332;18.034;2023-03-25T07:27:58;98946.97;;;2.17;71.10
51715;BME280;39115;59.332;18.034;2023-03-25T07:30:19;98946.59;;;2.22;71.00
51715;BME280;39115;59.332;18.034;2023-03-25T07:32:40;98946.25;;;2.27;71.42
51715;BME280;39115;59.332;18.034;2023-03-25T07:35:00;98946.56;;;2.33;70.88
51715;BME280;39115;59.332;18.034;2023-03-25T07:37:21;98949.38;;;2.42;70.88
51715;BME280;39115;59.332;18.034;2023-03-25T07:39:41;98956.41;;;2.52;70.58
51715;BME280;39115;59.332;18.034;2023-03-25T07:42:02;98962.25;;;2.56;70.73
51715;BME280;39115;59.332;18.034;2023-03-25T07:44:22;98971.13;;;2.65;70.59
51715;BME280;39115;59.332;18.034;2023-03-25T07:46:43;98970.00;;;2.79;70.38
51715;BME280;39115;59.332;18.034;2023-03-25T07:49:03;98960.25;;;2.91;70.41
51715;BME280;39115;59.332;18.034;2023-03-25T07:51:24;98969.84;;;3.02;70.61
51715;BME280;39115;59.332;18.034;2023-03-25T07:53:45;98959.78;;;3.07;70.19
51715;BME280;39115;59.332;18.034;2023-03-25T07:56:06;98963.13;;;3.09;70.12
51715;BME280;39115;59.332;18.034;2023-03-25T07:58:26;98971.00;;;3.09;70.29
51715;BME280;39115;59.332;18.034;2023-03-25T08:00:47;98974.44;;;3.09;70.08
51715;BME280;39115;59.332;18.034;2023-03-25T08:03:10;98965.59;;;3.10;70.04
51715;BME280;39115;59.332;18.034;2023-03-25T08:05:30;98974.44;;;3.09;70.16
51715;BME280;39115;59.332;18.034;2023-03-25T08:07:51;98970.44;;;3.05;70.12
51715;BME280;39115;59.332;18.034;2023-03-25T08:10:12;98972.47;;;3.02;70.15
51715;BME280;39115;59.332;18.034;2023-03-25T08:12:34;98978.00;;;2.98;70.10
51715;BME280;39115;59.332;18.034;2023-03-25T08:14:56;98975.34;;;2.98;69.89
51715;BME280;39115;59.332;18.034;2023-03-25T08:17:17;98979.78;;;2.98;69.95
51715;BME280;39115;59.332;18.034;2023-03-25T08:19:37;98983.09;;;3.00;70.08
51715;BME280;39115;59.332;18.034;2023-03-25T08:21:58;98980.09;;;3.05;70.08
51715;BME280;39115;59.332;18.034;2023-03-25T08:24:18;98983.19;;;3.10;69.85
51715;BME280;39115;59.332;18.034;2023-03-25T08:26:39;98976.84;;;3.12;69.91
51715;BME280;39115;59.332;18.034;2023-03-25T08:29:00;98964.97;;;3.18;69.76
51715;BME280;39115;59.332;18.034;2023-03-25T08:31:25;98969.94;;;3.21;69.73
51715;BME280;39115;59.332;18.034;2023-03-25T08:33:45;98980.47;;;3.21;69.73
51715;BME280;39115;59.332;18.034;2023-03-25T08:36:08;98977.97;;;3.20;69.68
51715;BME280;39115;59.332;18.034;2023-03-25T08:38:33;98983.09;;;3.21;69.94
51715;BME280;39115;59.332;18.034;2023-03-25T08:40:54;98978.53;;;3.23;69.55
51715;BME280;39115;59.332;18.034;2023-03-25T08:43:14;98980.06;;;3.26;69.87
51715;BME280;39115;59.332;18.034;2023-03-25T08:45:35;98971.22;;;3.27;69.50
51715;BME280;39115;59.332;18.034;2023-03-25T08:47:55;98967.78;;;3.26;69.61
51715;BME280;39115;59.332;18.034;2023-03-25T08:50:16;98971.22;;;3.27;69.68
51715;BME280;39115;59.332;18.034;2023-03-25T08:52:36;98975.66;;;3.26;69.87
51715;BME280;39115;59.332;18.034;2023-03-25T08:54:57;98974.97;;;3.24;69.64
51715;BME280;39115;59.332;18.034;2023-03-25T08:57:17;98985.88;;;3.20;69.87
51715;BME280;39115;59.332;18.034;2023-03-25T08:59:38;98972.16;;;3.16;69.67
51715;BME280;39115;59.332;18.034;2023-03-25T09:01:58;98980.41;;;3.11;69.85
51715;BME280;39115;59.332;18.034;2023-03-25T09:04:19;98973.63;;;3.09;69.94
51715;BME280;39115;59.332;18.034;2023-03-25T09:06:39;98980.66;;;3.08;70.07
51715;BME280;39115;59.332;18.034;2023-03-25T09:09:00;98975.97;;;3.12;69.98
51715;BME280;39115;59.332;18.034;2023-03-25T09:11:21;98976.69;;;3.14;69.98
51715;BME280;39115;59.332;18.034;2023-03-25T09:13:42;98979.31;;;3.14;69.98
51715;BME280;39115;59.332;18.034;2023-03-25T09:16:02;98971.56;;;3.12;70.11
51715;BME280;39115;59.332;18.034;2023-03-25T09:18:23;98975.72;;;3.15;70.04
51715;BME280;39115;59.332;18.034;2023-03-25T09:20:43;98975.34;;;3.20;70.06
51715;BME280;39115;59.332;18.034;2023-03-25T09:23:07;98977.31;;;3.27;69.97
51715;BME280;39115;59.332;18.034;2023-03-25T09:25:29;98984.94;;;3.30;70.12
51715;BME280;39115;59.332;18.034;2023-03-25T09:27:49;98982.06;;;3.34;69.90
51715;BME280;39115;59.332;18.034;2023-03-25T09:30:10;98977.06;;;3.30;69.74
51715;BME280;39115;59.332;18.034;2023-03-25T09:32:31;98983.41;;;3.28;69.82
51715;BME280;39115;59.332;18.034;2023-03-25T09:34:52;98984.50;;;3.25;69.95
51715;BME280;39115;59.332;18.034;2023-03-25T09:37:13;98991.69;;;3.23;70.15
51715;BME280;39115;59.332;18.034;2023-03-25T09:39:33;98980.94;;;3.26;70.01
51715;BME280;39115;59.332;18.034;2023-03-25T09:42:27;98979.94;;;3.27;69.76
51715;BME280;39115;59.332;18.034;2023-03-25T09:47:37;98980.16;;;3.14;70.04
51715;BME280;39115;59.332;18.034;2023-03-25T09:50:03;98981.25;;;3.12;70.45
51715;BME280;39115;59.332;18.034;2023-03-25T09:52:34;98981.13;;;3.13;70.33
51715;BME280;39115;59.332;18.034;2023-03-25T09:55:03;98971.56;;;3.12;70.19
51715;BME280;39115;59.332;18.034;2023-03-25T09:57:29;98981.25;;;3.12;70.10
51715;BME280;39115;59.332;18.034;2023-03-25T09:59:50;98976.97;;;3.11;70.05
51715;BME280;39115;59.332;18.034;2023-03-25T10:02:38;98993.44;;;3.13;70.11
51715;BME280;39115;59.332;18.034;2023-03-25T10:16:34;98993.91;;;3.18;70.33
51715;BME280;39115;59.332;18.034;2023-03-25T10:21:55;98972.16;;;3.16;70.41
51715;BME280;39115;59.332;18.034;2023-03-25T10:24:21;98964.41;;;3.14;70.46
51715;BME280;39115;59.332;18.034;2023-03-25T10:26:49;98969.50;;;3.16;70.53
51715;BME280;39115;59.332;18.034;2023-03-25T10:29:16;98964.41;;;3.14;70.61
51715;BME280;39115;59.332;18.034;2023-03-25T10:31:49;98958.28;;;3.14;70.51
51715;BME280;39115;59.332;18.034;2023-03-25T10:34:14;98954.84;;;3.13;70.67
51715;BME280;39115;59.332;18.034;2023-03-25T10:36:41;98965.47;;;3.12;70.79
51715;BME280;39115;59.332;18.034;2023-03-25T10:39:09;98958.69;;;3.09;70.79
51715;BME280;39115;59.332;18.034;2023-03-25T10:41:34;98961.44;;;3.08;70.92
51715;BME280;39115;59.332;18.034;2023-03-25T10:43:56;98957.97;;;3.07;70.98
51715;BME280;39115;59.332;18.034;2023-03-25T10:48:48;98971.38;;;3.04;70.78
51715;BME280;39115;59.332;18.034;2023-03-25T10:51:12;98972.59;;;3.00;70.95
51715;BME280;39115;59.332;18.034;2023-03-25T10:53:35;98968.19;;;3.00;70.93
51715;BME280;39115;59.332;18.034;2023-03-25T10:56:02;98962.78;;;3.02;71.35
51715;BME280;39115;59.332;18.034;2023-03-25T10:58:24;98963.19;;;2.97;71.11
51715;BME280;39115;59.332;18.034;2023-03-25T11:00:46;98949.34;;;2.95;70.90
51715;BME280;39115;59.332;18.034;2023-03-25T11:03:16;98941.47;;;2.95;70.77
51715;BME280;39115;59.332;18.034;2023-03-25T11:05:39;98931.63;;;2.97;70.95
51715;BME280;39115;59.332;18.034;2023-03-25T11:08:00;98929.31;;;3.04;70.84
51715;BME280;39115;59.332;18.034;2023-03-25T11:10:27;98909.81;;;3.07;70.57
51715;BME280;39115;59.332;18.034;2023-03-25T11:12:50;98909.69;;;3.08;70.78
51715;BME280;39115;59.332;18.034;2023-03-25T11:15:14;98898.59;;;3.05;70.89
51715;BME280;39115;59.332;18.034;2023-03-25T11:17:36;98899.69;;;3.02;70.77
51715;BME280;39115;59.332;18.034;2023-03-25T11:20:04;98887.50;;;3.01;70.43
51715;BME280;39115;59.332;18.034;2023-03-25T11:22:34;98891.38;;;2.97;70.69
51715;BME280;39115;59.332;18.034;2023-03-25T11:25:11;98894.25;;;2.94;70.80
51715;BME280;39115;59.332;18.034;2023-03-25T11:27:51;98907.78;;;2.89;70.58
51715;BME280;39115;59.332;18.034;2023-03-25T11:30:16;98913.44;;;2.84;70.84
51715;BME280;39115;59.332;18.034;2023-03-25T11:32:38;98906.94;;;2.79;70.58
51715;BME280;39115;59.332;18.034;2023-03-25T11:35:16;98901.66;;;2.79;70.74
51715;BME280;39115;59.332;18.034;2023-03-25T11:37:44;98891.16;;;2.79;70.99
51715;BME280;39115;59.332;18.034;2023-03-25T11:40:13;98896.81;;;2.74;70.68
51715;BME280;39115;59.332;18.034;2023-03-25T11:42:38;98895.53;;;2.68;70.76
51715;BME280;39115;59.332;18.034;2023-03-25T11:45:02;98884.56;;;2.63;70.94
51715;BME280;39115;59.332;18.034;2023-03-25T11:47:34;98897.97;;;2.60;70.87
51715;BME280;39115;59.332;18.034;2023-03-25T11:49:55;98915.06;;;2.55;70.91
51715;BME280;39115;59.332;18.034;2023-03-25T11:52:22;98902.06;;;2.53;71.16
51715;BME280;39115;59.332;18.034;2023-03-25T11:54:43;98909.38;;;2.49;71.06
51715;BME280;39115;59.332;18.034;2023-03-25T11:57:25;98920.97;;;2.47;71.11
51715;BME280;39115;59.332;18.034;2023-03-25T11:59:48;98929.94;;;2.44;70.87
51715;BME280;39115;59.332;18.034;2023-03-25T12:02:21;98938.06;;;2.41;70.87
51715;BME280;39115;59.332;18.034;2023-03-25T12:07:49;98945.22;;;2.39;70.75
51715;BME280;39115;59.332;18.034;2023-03-25T12:10:20;98952.84;;;2.42;71.00
51715;BME280;39115;59.332;18.034;2023-03-25T12:18:15;98978.00;;;2.56;70.92
51715;BME280;39115;59.332;18.034;2023-03-25T12:20:58;98989.91;;;2.60;70.82
51715;BME280;39115;59.332;18.034;2023-03-25T12:26:10;98976.25;;;2.66;70.78
51715;BME280;39115;59.332;18.034;2023-03-25T12:47:20;98970.44;;;3.05;70.13
51715;BME280;39115;59.332;18.034;2023-03-25T12:54:48;98973.31;;;3.02;70.07
51715;BME280;39115;59.332;18.034;2023-03-25T12:59:58;98981.97;;;2.93;70.16
51715;BME280;39115;59.332;18.034;2023-03-25T13:05:03;98984.97;;;2.88;70.12
51715;BME280;39115;59.332;18.034;2023-03-25T13:07:34;98978.47;;;2.82;70.12
51715;BME280;39115;59.332;18.034;2023-03-25T13:10:06;98974.28;;;2.80;70.35
51715;BME280;39115;59.332;18.034;2023-03-25T13:12:40;98979.56;;;2.80;70.30
51715;BME280;39115;59.332;18.034;2023-03-25T13:15:14;98979.66;;;2.78;70.15
51715;BME280;39115;59.332;18.034;2023-03-25T13:17:40;98977.31;;;2.75;70.31
51715;BME280;39115;59.332;18.034;2023-03-25T13:20:03;98984.91;;;2.78;70.28
51715;BME280;39115;59.332;18.034;2023-03-25T13:22:32;98984.53;;;2.83;70.20
51715;BME280;39115;59.332;18.034;2023-03-25T13:25:00;98994.22;;;2.82;70.19
51715;BME280;39115;59.332;18.034;2023-03-25T13:27:22;98985.75;;;2.79;69.99
51715;BME280;39115;59.332;18.034;2023-03-25T13:29:46;98994.59;;;2.78;70.31
51715;BME280;39115;59.332;18.034;2023-03-25T13:32:11;98991.84;;;2.79;70.01
51715;BME280;39115;59.332;18.034;2023-03-25T13:37:15;98994.13;;;2.73;70.00
51715;BME280;39115;59.332;18.034;2023-03-25T13:42:31;99005.88;;;2.68;70.04
51715;BME280;39115;59.332;18.034;2023-03-25T13:44:58;99009.84;;;2.63;70.00
51715;BME280;39115;59.332;18.034;2023-03-25T13:47:24;99011.75;;;2.61;70.15
51715;BME280;39115;59.332;18.034;2023-03-25T13:50:34;99004.84;;;2.60;69.95
51715;BME280;39115;59.332;18.034;2023-03-25T13:52:38;99011.88;;;2.59;70.08
51715;BME280;39115;59.332;18.034;2023-03-25T13:55:09;99004.13;;;2.58;70.21
51715;BME280;39115;59.332;18.034;2023-03-25T14:03:04;99006.25;;;2.64;69.87
51715;BME280;39115;59.332;18.034;2023-03-25T14:05:44;99003.19;;;2.59;69.92
51715;BME280;39115;59.332;18.034;2023-03-25T14:08:41;99004.13;;;2.58;70.01
51715;BME280;39115;59.332;18.034;2023-03-25T14:13:41;98997.22;;;2.57;69.93
51715;BME280;39115;59.332;18.034;2023-03-25T14:16:10;99005.66;;;2.60;69.88
51715;BME280;39115;59.332;18.034;2023-03-25T14:18:41;98995.88;;;2.62;69.89
51715;BME280;39115;59.332;18.034;2023-03-25T14:23:42;99005.28;;;2.65;69.98
51715;BME280;39115;59.332;18.034;2023-03-25T14:26:06;99005.16;;;2.66;69.82
51715;BME280;39115;59.332;18.034;2023-03-25T14:28:39;99012.94;;;2.68;70.00